Capitol Logistics 430


KSMF
Sacramento International Airport
Sacramento, California, US
KSEA
Seattle-Tacoma International Airport
Seattle, Washington, US

Activity Log

Date Flight Route Aircraft Duration
05/19/2020 CPX206 KSMF/34L RBL J65 LMT HAWKZ7 KSEA/I16L B763 1h 43m
04/30/2020 CPX206 RBL J126 OED J1 SEA B763 1h 52m
03/30/2020 CPX206 RBL LMT HAWKZ7 B763 1h 42m
09/25/2019 CPX206 DUDES9 FMG J5 LKV HAWKZ7 B763 1h 48m
06/24/2019 CPX430 RBL J126 OED J1 SEA B752 1h 33m

Route Details

Aircraft Information
Primary: Boeing 757-200SF
Backup: Boeing 737-800BCF
Route Data
Distance: 527nm
Sched. Duration: 1h 30m
Avg. Duration: 1h 43m (+14m)
Times Flown: 5
Recm'd Route: RBL J126 OED J1 SEA
Planned Altitude: 36,000ft
Origin Wx: KSMF 060653Z 15015KT 10SM SCT250 14/09 A2975 RMK AO2 SLP072 T01440089
Dest. Wx: KSEA 060653Z 21009KT 10SM BKN032 BKN120 12/08 A2976 RMK AO2 SLP083 T01220083
Notes:

Financial History
Total Freight: 488,561lbs
Average Load: 97,712lbs/flt
Fuel Used: 86,589lbs
Avg. Fuel Used: 17,318lbs/flt
Fuel Expense: $94,382
Avg. Fuel Expense: $18,876
Avg. Fuel Cost: $1.09/lbs
Total Gross Income: $645,785
Pilot Pay: $985
Total Expenses: $70,005
Total Revenue: $479,406
Average Revenue: $129,157.05